MREC weather

El Carmen de Siquirres Airport
Siquirres, Limon, Costa Rica

Public forecast

Using degrees Celsius for public forecast. Weather courtesy of forecast.io.

METAR (pilot weather report)

Report is more than 2 hours old.

Closest report is Limon International Airport, 30.4 nm (56.3 km) ESE. Retrieved 2019/02/18 00:00 UTC (6 hours ago):

MRLM 180000Z 09005KT 9999 BKN020 27/24 A2991

TAF (pilot weather forecast)

Forecast is more than 12 hours old.

Closest forecast is Limon International Airport, 30.4 nm (56.3 km) ESE. Retrieved 2019/02/17 12:18 UTC (18 hours ago):

TAF MRLM 171100Z 1712/1812 25004KT 9999 FEW025 TX30/1719Z TN21/1812Z BECMG 1714/1716 08006KT BECMG 1801/1803 21003KT